^^
Grace C. Lehan Memorial Weather Station Historical Data
 
Daily Summary for September 27, 2022 Units:  English    Metric   Both
Daily Weekly Monthly Yearly
  Current: High: Low: Average:
Temperature: 59.9 °F 70.9 °F 54.7 °F 61.4 °F
Dew Point: 51.1 °F 62.3 °F 51 °F 55 °F
Humidity: 72.7% 97% 54% 82%
Wind Speed: 0mph 2.2mph 0mph 0.2mph
Wind Gust: 0mph 14mph - -
WindCalm - - WSW
Pressure: 29.85 in 29.85 in 29.73 in -
Precipitation: 0.01 in      
 
 
Tabular Data for September 27, 2022
Time Temperature Dew Point Pressure Wind Wind Speed Wind Gust Humidity Rainfall Rate (Hourly) solar
00:04 57.4 °F 55.9 °F 29.75 in Calm     94.9% 0.00 in 0 W/m2
00:09 57.3 °F 55.9 °F 29.75 in Calm     95% 0.00 in 0 W/m2
00:14 57.2 °F 55.8 °F 29.75 in Calm     95% 0.00 in 0 W/m2
00:19 57.2 °F 55.8 °F 29.75 in Calm     95% 0.00 in 0 W/m2
00:24 57.1 °F 55.7 °F 29.75 in Calm     95% 0.01 in 0 W/m2
00:29 57.1 °F 55.7 °F 29.75 in Calm     95% 0.01 in 0 W/m2
00:34 56.9 °F 55.5 °F 29.75 in Calm     95% 0.01 in 0 W/m2
00:39 56.9 °F 55.5 °F 29.75 in Calm     95% 0.01 in 0 W/m2
00:44 57 °F 55.6 °F 29.75 in Calm     95% 0.01 in 0 W/m2
00:49 57.1 °F 55.7 °F 29.75 in Calm     95% 0.01 in 0 W/m2
00:54 57.2 °F 55.8 °F 29.75 in Calm     95.2% 0.01 in 0 W/m2
00:59 57.2 °F 55.8 °F 29.76 in Calm     95% 0.01 in 0 W/m2
01:04 57.2 °F 55.8 °F 29.75 in Calm     95% 0.01 in 0 W/m2
01:09 57.2 °F 55.8 °F 29.75 in Calm     95% 0.00 in 0 W/m2
01:14 57.1 °F 55.7 °F 29.75 in Calm     95% 0.00 in 0 W/m2
01:19 57 °F 55.6 °F 29.75 in Calm     95% 0.00 in 0 W/m2
01:24 56.9 °F 55.5 °F 29.75 in Calm     95% 0.00 in 0 W/m2
01:29 56.9 °F 55.5 °F 29.75 in Calm     95% 0.00 in 0 W/m2
01:34 56.9 °F 55.5 °F 29.75 in Calm     95% 0.00 in 0 W/m2
01:39 56.9 °F 55.5 °F 29.75 in Calm     95% 0.00 in 0 W/m2
01:44 56.9 °F 55.5 °F 29.75 in Calm     95% 0.00 in 0 W/m2
01:49 57 °F 55.8 °F 29.75 in Calm     95.6% 0.00 in 0 W/m2
01:54 57 °F 55.9 °F 29.75 in Calm     96% 0.00 in 0 W/m2
01:59 57.1 °F 55.9 °F 29.75 in Calm     96% 0.00 in 0 W/m2
02:04 57.1 °F 56 °F 29.75 in Calm     96% 0.00 in 0 W/m2
02:09 57.1 °F 56 °F 29.75 in Calm     96% 0.00 in 0 W/m2
02:14 57.1 °F 56 °F 29.74 in Calm     96% 0.00 in 0 W/m2
02:19 57.1 °F 56 °F 29.74 in Calm     96% 0.00 in 0 W/m2
02:24 57.1 °F 56 °F 29.75 in Calm     96% 0.00 in 0 W/m2
02:29 57 °F 55.9 °F 29.74 in Calm     96% 0.00 in 0 W/m2
02:34 57 °F 55.8 °F 29.75 in Calm     96% 0.00 in 0 W/m2
02:39 56.9 °F 55.8 °F 29.75 in Calm     96% 0.00 in 0 W/m2
02:44 56.9 °F 55.8 °F 29.75 in Calm     96% 0.00 in 0 W/m2
02:49 56.9 °F 55.7 °F 29.75 in Calm     96% 0.00 in 0 W/m2
02:54 56.8 °F 55.7 °F 29.75 in Calm     96% 0.00 in 0 W/m2
02:59 56.8 °F 55.7 °F 29.75 in Calm     96% 0.00 in 0 W/m2
03:04 56.8 °F 55.7 °F 29.75 in Calm     96% 0.00 in 0 W/m2
03:09 56.8 °F 55.7 °F 29.75 in Calm     96% 0.00 in 0 W/m2
03:14 56.8 °F 55.7 °F 29.75 in Calm     96% 0.00 in 0 W/m2
03:19 56.9 °F 55.7 °F 29.75 in Calm     96% 0.00 in 0 W/m2
03:24 56.8 °F 55.7 °F 29.74 in Calm     96% 0.00 in 0 W/m2
03:29 56.8 °F 55.7 °F 29.74 in Calm     96% 0.00 in 0 W/m2
03:34 56.8 °F 55.7 °F 29.74 in Calm     96% 0.00 in 0 W/m2
03:39 56.8 °F 55.7 °F 29.74 in Calm     96% 0.00 in 0 W/m2
03:44 56.7 °F 55.6 °F 29.74 in Calm     96% 0.00 in 0 W/m2
03:49 56.7 °F 55.6 °F 29.74 in Calm     96% 0.00 in 0 W/m2
03:54 56.6 °F 55.5 °F 29.74 in Calm     96% 0.00 in 0 W/m2
03:59 56.6 °F 55.4 °F 29.73 in Calm     96% 0.00 in 0 W/m2
04:04 56.4 °F 55.3 °F 29.73 in Calm     96% 0.00 in 0 W/m2
04:09 56.4 °F 55.3 °F 29.73 in Calm     96% 0.00 in 0 W/m2
04:14 56.3 °F 55.2 °F 29.74 in Calm     96% 0.00 in 0 W/m2
04:19 56.2 °F 55.1 °F 29.74 in Calm     96% 0.00 in 0 W/m2
04:24 56.1 °F 55 °F 29.74 in Calm     96% 0.00 in 0 W/m2
04:29 56.1 °F 54.9 °F 29.74 in Calm     96% 0.00 in 0 W/m2
04:34 56 °F 54.9 °F 29.74 in Calm     96% 0.00 in 0 W/m2
04:39 56 °F 54.9 °F 29.74 in Calm     96% 0.00 in 0 W/m2
04:44 55.9 °F 54.8 °F 29.74 in Calm     96% 0.00 in 0 W/m2
04:49 55.9 °F 54.8 °F 29.74 in Calm     96% 0.00 in 0 W/m2
04:54 56 °F 54.9 °F 29.75 in Calm     96% 0.00 in 0 W/m2
04:59 56 °F 54.9 °F 29.75 in Calm     96% 0.00 in 0 W/m2
05:04 56 °F 54.9 °F 29.75 in Calm     96% 0.00 in 0 W/m2
05:09 56 °F 54.8 °F 29.75 in Calm     96% 0.00 in 0 W/m2
05:14 55.9 °F 54.7 °F 29.75 in Calm     96% 0.00 in 0 W/m2
05:19 55.8 °F 54.6 °F 29.75 in Calm     96% 0.00 in 0 W/m2
05:24 55.7 °F 54.6 °F 29.75 in Calm     96% 0.00 in 0 W/m2
05:29 55.7 °F 54.6 °F 29.75 in Calm     96% 0.00 in 0 W/m2
05:34 55.7 °F 54.6 °F 29.75 in Calm     96% 0.00 in 0 W/m2
05:39 55.7 °F 54.6 °F 29.75 in Calm     96% 0.00 in 0 W/m2
05:44 55.6 °F 54.5 °F 29.75 in Calm     96% 0.00 in 0 W/m2
05:49 55.6 °F 54.4 °F 29.75 in Calm     96% 0.00 in 0 W/m2
05:54 55.5 °F 54.4 °F 29.75 in Calm     96% 0.00 in 0 W/m2
05:59 55.4 °F 54.3 °F 29.75 in Calm     96% 0.00 in 0 W/m2
06:04 55.3 °F 54.2 °F 29.75 in Calm     96% 0.00 in 0 W/m2
06:09 55.2 °F 54.1 °F 29.75 in Calm     96% 0.00 in 0 W/m2
06:14 55.1 °F 54 °F 29.75 in Calm     96% 0.00 in 0 W/m2
06:19 55 °F 53.9 °F 29.75 in Calm     96% 0.00 in 0 W/m2
06:24 55 °F 53.8 °F 29.75 in Calm     96% 0.00 in 0 W/m2
06:29 54.9 °F 53.8 °F 29.75 in Calm     96% 0.00 in 0 W/m2
06:34 54.8 °F 53.7 °F 29.75 in Calm     96% 0.00 in 0 W/m2
06:39 54.8 °F 53.7 °F 29.75 in Calm     96% 0.00 in 0 W/m2
06:44 54.7 °F 53.6 °F 29.75 in Calm     96% 0.00 in 0 W/m2
06:49 54.7 °F 53.6 °F 29.75 in Calm     96% 0.00 in 0 W/m2
06:54 54.7 °F 53.6 °F 29.75 in Calm     96% 0.00 in 5 W/m2
06:59 54.8 °F 53.6 °F 29.75 in Calm     96% 0.00 in 7 W/m2
07:04 54.8 °F 53.7 °F 29.75 in Calm     96% 0.00 in 11 W/m2
07:09 54.8 °F 53.7 °F 29.76 in Calm     96% 0.00 in 12 W/m2
07:14 54.8 °F 53.7 °F 29.76 in Calm     96% 0.00 in 16 W/m2
07:19 54.9 °F 53.7 °F 29.76 in Calm     96% 0.00 in 18 W/m2
07:24 54.9 °F 53.8 °F 29.76 in Calm     96% 0.00 in 21 W/m2
07:29 54.9 °F 53.8 °F 29.76 in Calm     96% 0.00 in 23 W/m2
07:34 55 °F 53.9 °F 29.76 in Calm     96% 0.00 in 30 W/m2
07:39 55 °F 53.9 °F 29.76 in Calm     96% 0.00 in 33 W/m2
07:44 55.1 °F 54 °F 29.76 in Calm     96% 0.00 in 40 W/m2
07:49 55.3 °F 54.1 °F 29.76 in Calm     96% 0.00 in 47 W/m2
07:54 55.4 °F 54.3 °F 29.76 in Calm     96% 0.00 in 62 W/m2
07:59 55.5 °F 54.4 °F 29.77 in Calm     96.1% 0.00 in 83 W/m2
08:09 55.9 °F 54.9 °F 29.77 in Calm     96.6% 0.00 in 91 W/m2
08:14 56.1 °F 55.2 °F 29.77 in Calm     97% 0.00 in 93 W/m2
08:19 56.3 °F 55.4 °F 29.77 in Calm     97% 0.00 in 97 W/m2
08:24 56.5 °F 55.7 °F 29.77 in Calm     97% 0.00 in 97 W/m2
08:29 56.7 °F 55.9 °F 29.77 in Calm     97% 0.00 in 72 W/m2
08:34 56.9 °F 56.1 °F 29.77 in Calm     97% 0.00 in 72 W/m2
08:39 57.1 °F 56.2 °F 29.77 in Calm     97% 0.00 in 76 W/m2
08:44 57.2 °F 56.3 °F 29.77 in Calm     97% 0.00 in 72 W/m2
08:49 57.2 °F 56.4 °F 29.78 in Calm     97% 0.00 in 98 W/m2
08:54 57.2 °F 56.4 °F 29.78 in Calm     97% 0.00 in 125 W/m2
08:59 57.4 °F 56.5 °F 29.78 in Calm     97% 0.00 in 392 W/m2
09:04 57.7 °F 56.9 °F 29.78 in Calm     97% 0.00 in 399 W/m2
09:09 58.4 °F 57.6 °F 29.78 in Calm     97% 0.00 in 457 W/m2
09:14 59.1 °F 58.3 °F 29.78 in Calm     97% 0.00 in 489 W/m2
09:19 59.8 °F 58.9 °F 29.78 in Calm     97% 0.00 in 489 W/m2
09:24 60.6 °F 59.7 °F 29.78 in Calm     97% 0.00 in 490 W/m2
09:29 61.4 °F 60.5 °F 29.79 in Calm     97% 0.00 in 501 W/m2
09:34 62.2 °F 61.3 °F 29.79 in Calm     97% 0.00 in 533 W/m2
09:39 62.8 °F 61.8 °F 29.79 in Calm     96.4% 0.00 in 540 W/m2
09:44 64 °F 62.3 °F 29.79 in WNW 0.1 mph 1 mph 94.2% 0.00 in 545 W/m2
09:49 64.9 °F 61.6 °F 29.79 in Calm   1 mph 89.1% 0.00 in 554 W/m2
09:54 65.6 °F 60.2 °F 29.79 in Calm   1 mph 82.8% 0.00 in 564 W/m2
09:59 66.3 °F 59.5 °F 29.79 in WNW 0.2 mph 4 mph 78.9% 0.00 in 578 W/m2
10:04 67 °F 59.3 °F 29.79 in WNW 0.1 mph 4 mph 76.5% 0.00 in 591 W/m2
10:09 67.6 °F 59.1 °F 29.79 in WNW 0.1 mph 3 mph 74.1% 0.00 in 599 W/m2
10:14 68.2 °F 58.6 °F 29.79 in West 0.2 mph 3 mph 71.3% 0.00 in 612 W/m2
10:19 68.9 °F 59.4 °F 29.79 in Calm   3 mph 71.8% 0.00 in 619 W/m2
10:24 69.4 °F 59.4 °F 29.79 in Calm   3 mph 70.6% 0.00 in 631 W/m2
10:25 69.7 °F 59.1 °F 29.79 in Calm   3 mph 69% 0.00 in 635 W/m2
10:30 70.1 °F 58.2 °F 29.79 in Calm   7 mph 66% 0.00 in 611 W/m2
11:00 70.8 °F 57.2 °F 29.79 in Calm   9 mph 62% 0.00 in 673 W/m2
11:30 70.6 °F 54.6 °F 29.78 in Calm   6 mph 57% 0.00 in 647 W/m2
12:04 70.6 °F 57.1 °F 29.78 in WSW 0.4 mph 2 mph 62.3% 0.00 in 207 W/m2
12:09 70.7 °F 56.5 °F 29.78 in SW 0.5 mph 4 mph 60.8% 0.00 in 125 W/m2
12:14 70.8 °F 56.5 °F 29.78 in WSW 1.2 mph 10 mph 60.6% 0.00 in 320 W/m2
12:19 70.7 °F 55.2 °F 29.78 in SW 1.5 mph 11 mph 58% 0.00 in 320 W/m2
12:24 70.6 °F 55 °F 29.78 in SW 0.3 mph 11 mph 57.7% 0.00 in 461 W/m2
12:29 70.6 °F 55.7 °F 29.78 in SW 0.1 mph 11 mph 59.1% 0.00 in 346 W/m2
12:34 70.8 °F 55.3 °F 29.78 in WSW 0.4 mph 11 mph 58.2% 0.00 in 476 W/m2
12:39 70.9 °F 55.3 °F 29.78 in WSW 0.5 mph 7 mph 58% 0.00 in 381 W/m2
12:44 70.8 °F 55.8 °F 29.78 in WSW 0.5 mph 9 mph 59% 0.00 in 69 W/m2
12:49 70.8 °F 55.9 °F 29.78 in WSW 0.1 mph 9 mph 59.2% 0.00 in 79 W/m2
12:54 70.8 °F 55.2 °F 29.78 in SW 0.5 mph 9 mph 57.8% 0.00 in 207 W/m2
12:59 70.8 °F 55.5 °F 29.78 in WSW 0.9 mph 9 mph 58.4% 0.00 in 207 W/m2
13:04 70.8 °F 55.3 °F 29.78 in WSW 0.6 mph 9 mph 57.9% 0.00 in 352 W/m2
13:09 70.8 °F 55.1 °F 29.78 in WSW 0.6 mph 5 mph 57.6% 0.00 in 165 W/m2
13:14 70.8 °F 55.4 °F 29.78 in WSW 0.3 mph 5 mph 58.3% 0.00 in 142 W/m2
13:19 70.6 °F 55.1 °F 29.78 in WSW 0.3 mph 5 mph 57.9% 0.00 in 153 W/m2
13:24 70.3 °F 55.4 °F 29.78 in WSW 0.2 mph 5 mph 59.1% 0.00 in 489 W/m2
13:29 70.3 °F 55.6 °F 29.77 in WSW 0.8 mph 6 mph 59.5% 0.00 in 181 W/m2
13:34 70.4 °F 54.8 °F 29.77 in WSW 0.5 mph 6 mph 57.8% 0.00 in 294 W/m2
13:39 70.4 °F 54.6 °F 29.77 in WSW 0.3 mph 5 mph 57.1% 0.00 in 411 W/m2
13:44 70.6 °F 54.9 °F 29.77 in WSW 0.7 mph 9 mph 57.6% 0.00 in 276 W/m2
13:49 70.6 °F 54.5 °F 29.77 in WSW 0.8 mph 12 mph 56.6% 0.00 in 128 W/m2
13:54 70.7 °F 54.5 °F 29.77 in WSW 1 mph 12 mph 56.6% 0.00 in 142 W/m2
13:59 70.8 °F 54 °F 29.77 in WSW 1 mph 12 mph 55.4% 0.00 in 116 W/m2
14:04 70.7 °F 54 °F 29.77 in WSW 0.7 mph 12 mph 55.5% 0.00 in 70 W/m2
14:09 70.5 °F 54.3 °F 29.77 in SW 0.8 mph 11 mph 56.5% 0.00 in 81 W/m2
14:14 70.4 °F 53.4 °F 29.77 in SW 0.9 mph 11 mph 54.8% 0.00 in 102 W/m2
14:17 70.5 °F 53.8 °F 29.77 in WSW 0.4 mph 11 mph 55.6% 0.00 in 111 W/m2
14:30 70.4 °F 53 °F 29.77 in SW 1 mph 11 mph 54% 0.00 in 106 W/m2
15:00 70.1 °F 54.2 °F 29.77 in WSW 1 mph 10 mph 57% 0.00 in 149 W/m2
15:30 70.2 °F 54.3 °F 29.76 in WSW 1 mph 14 mph 57% 0.00 in 97 W/m2
16:04 69.7 °F 54.1 °F 29.77 in SSW 0.9 mph 3 mph 57.7% 0.00 in 46 W/m2
16:09 69.6 °F 53.8 °F 29.78 in WSW 0.6 mph 5 mph 57.2% 0.00 in 46 W/m2
16:14 69.4 °F 53.3 °F 29.78 in WSW 1.5 mph 10 mph 56.5% 0.00 in 95 W/m2
16:19 69.3 °F 53.6 °F 29.78 in WSW 1.5 mph 10 mph 57.3% 0.00 in 98 W/m2
16:24 69.2 °F 53.3 °F 29.78 in West 1.9 mph 11 mph 57% 0.00 in 51 W/m2
16:29 69.2 °F 53.8 °F 29.78 in WNW 0.3 mph 11 mph 58.1% 0.00 in 35 W/m2
16:34 69.1 °F 53.9 °F 29.78 in WNW 0.3 mph 11 mph 58.3% 0.00 in 39 W/m2
16:39 69 °F 53.9 °F 29.78 in WSW 1 mph 11 mph 58.6% 0.00 in 39 W/m2
16:44 68.9 °F 53.6 °F 29.79 in WSW 0.5 mph 11 mph 58.2% 0.00 in 35 W/m2
16:49 68.8 °F 54 °F 29.79 in West 1.2 mph 12 mph 59.2% 0.00 in 40 W/m2
16:54 68.7 °F 53.8 °F 29.79 in WSW 0.2 mph 12 mph 59% 0.00 in 44 W/m2
16:59 68.6 °F 53.9 °F 29.79 in SW 1.2 mph 14 mph 59.5% 0.00 in 33 W/m2
17:04 68.4 °F 53.5 °F 29.80 in SW 0.6 mph 14 mph 59% 0.00 in 39 W/m2
17:09 68.2 °F 53.4 °F 29.80 in WSW 1.5 mph 9 mph 59.2% 0.00 in 39 W/m2
17:14 67.8 °F 53.3 °F 29.80 in WSW 1.7 mph 9 mph 59.6% 0.00 in 37 W/m2
17:19 67.5 °F 53.4 °F 29.80 in WSW 0.5 mph 9 mph 60.6% 0.00 in 56 W/m2
17:24 67.3 °F 53.6 °F 29.80 in WSW 0.6 mph 9 mph 61.5% 0.00 in 63 W/m2
17:29 67.2 °F 53.9 °F 29.80 in WSW 2.2 mph 9 mph 62.3% 0.00 in 56 W/m2
17:34 67.2 °F 53.7 °F 29.81 in WSW 1.4 mph 9 mph 62% 0.00 in 35 W/m2
17:39 66.9 °F 53.5 °F 29.81 in WSW 1.5 mph 11 mph 61.9% 0.00 in 23 W/m2
17:44 66.7 °F 53.4 °F 29.82 in WSW 0.7 mph 11 mph 62.2% 0.00 in 23 W/m2
17:49 66.4 °F 53.5 °F 29.82 in West 0.4 mph 11 mph 63.1% 0.00 in 21 W/m2
17:54 66.2 °F 53.7 °F 29.82 in West 0.2 mph 11 mph 64% 0.00 in 21 W/m2
17:59 66 °F 54 °F 29.82 in WNW 1.1 mph 11 mph 65.2% 0.00 in 25 W/m2
18:04 65.7 °F 53.4 °F 29.83 in West 2 mph 11 mph 64.5% 0.00 in 14 W/m2
18:09 65.3 °F 52.7 °F 29.83 in West 0.8 mph 11 mph 63.9% 0.00 in 11 W/m2
18:14 64.9 °F 52.3 °F 29.83 in WSW 0.9 mph 11 mph 63.7% 0.00 in 9 W/m2
18:19 64.5 °F 52.1 °F 29.83 in WSW 0.1 mph 11 mph 64% 0.00 in 7 W/m2
18:24 64.2 °F 52.2 °F 29.83 in WSW 0.2 mph 11 mph 64.9% 0.00 in 7 W/m2
18:29 64 °F 52.2 °F 29.83 in WSW 0.1 mph 11 mph 65.6% 0.00 in 5 W/m2
18:34 63.7 °F 52.1 °F 29.84 in Calm   11 mph 66% 0.00 in 0 W/m2
18:39 63.4 °F 51.8 °F 29.84 in Calm     66% 0.00 in 0 W/m2
18:44 63 °F 51.8 °F 29.84 in Calm   1 mph 66.7% 0.00 in 0 W/m2
18:49 62.8 °F 51.7 °F 29.84 in Calm   1 mph 67% 0.00 in 0 W/m2
18:54 62.5 °F 51.6 °F 29.84 in Calm   1 mph 67.5% 0.00 in 0 W/m2
18:59 62.2 °F 51.6 °F 29.84 in Calm   1 mph 68% 0.00 in 0 W/m2
19:04 62 °F 51.4 °F 29.84 in Calm   1 mph 68.3% 0.00 in 0 W/m2
19:09 61.7 °F 51.4 °F 29.85 in Calm     69% 0.00 in 0 W/m2
19:14 61.5 °F 51.3 °F 29.85 in Calm     69.3% 0.00 in 0 W/m2
19:19 61.2 °F 51.4 °F 29.85 in Calm     70% 0.00 in 0 W/m2
19:24 61 °F 51.3 °F 29.85 in Calm     70.5% 0.00 in 0 W/m2
19:29 60.8 °F 51.4 °F 29.85 in Calm     71% 0.00 in 0 W/m2
19:34 60.6 °F 51.2 °F 29.85 in Calm     71% 0.00 in 0 W/m2
19:39 60.4 °F 51.2 °F 29.85 in Calm     71.7% 0.00 in 0 W/m2
19:44 60.2 °F 51.2 °F 29.85 in Calm     72% 0.00 in 0 W/m2
19:49 60 °F 51 °F 29.85 in Calm     72% 0.00 in 0 W/m2
19:53 59.9 °F 51.1 °F 29.85 in Calm     72.7% 0.00 in 0 W/m2
Hartford County Weather
Compliments of Weather Underground - 2 mb